Terminal Aerodrome Forecast
Issued by NWS

Home | Current Version | Previous Version | Text Only | Print | Product List | Glossary On
Versions: 1 2 3 4 5 6 7 8 9 10 11 12 13 14
056
FTUS45 KABQ 192341
TAFLVS
TAF
KLVS 192341Z 2000/2024 16018G30KT P6SM BKN120
     FM200400 18016G26KT P6SM BKN060
     FM201000 19020G32KT 5SM -SHRA BR OVC030
     FM201400 20020G32KT 3SM -SHRA BR OVC005
     FM201900 21016G26KT P6SM SCT090 SCT150=

USA.gov is the U.S. government's official web portal to all federal, state and local government web resources and services.